Terminal Aerodrome Forecast
Issued by NWS

Home | Current Version | Previous Version | Text Only | Print | Product List | Glossary On
Versions: 1 2 3 4 5 6 7 8 9 10 11 12 13 14 15 16 17 18 19 20 21
000
FTUS43 KMQT 200700 AAA
TAFSAW
TAF AMD
KSAW 200722Z 2007/2106 20012KT P6SM OVC035
     FM200900 21009KT P6SM OVC020
     FM201100 22006KT 5SM BR OVC008
     FM201500 24010KT P6SM OVC015
     FM201900 28012KT P6SM BKN035
     FM202200 32007KT P6SM BKN035
     FM210400 02005KT P6SM BKN015
      AMD LTD TO CLD VIS AND WIND TIL 201000=

USA.gov is the U.S. government's official web portal to all federal, state and local government web resources and services.